Saint Louis, Missouri
Traffic Map
Current Weather Conditions
Saint Louis, Missouri
Clear
Clear
-15°
Feels Like: -15°
Wind Chill: -15° Ceiling: Unl
Heat Index: -15° Visibility: 10mi
Dew Point: -18° Wind: 3mph
Humidity: 76% Direction: 270° (W)
Pressure: 30.69in Gusts: 0mph
Raw Report DataKCPS 171153Z AUTO 27003KT 10SM CLR M15/M18 A3069 RMK AO2 SLP403 T11501183 11117 21150 56001
Traffic Incident Summary
Active as of:
Severity:
Category:
InformationThere was an issue retrieving the traffic information for this location. Please try a different location or try again shortly.
Advertisements